Indian Creek Village, Florida
Current Conditions -  °F | °C
As of 4:53 PM on Thursday 18 Dec 2014 (Local Time) from KOPF Reporting Station
Clear Clear  
Wind Chill: 24°   Ceiling: Unl
Heat Index: 24°   Visibility: 10mi
Dew Point: 13°   Wind: 7mph
Humidity: 50%   Direction: 280°W
Pressure: 30.07"   Gusts: NA
Location:  25.882°N, 80.1292°W
Report Text: KOPF 182153Z AUTO 28006KT 10SM CLR 24/13 A3007 RMK AO2 SLP183 T02390128
Loading
Personal Weather Stations






























Interactive Weather Map New forecast layout! Learn more

10-Day Weather Forecast

Advertisements
Track Severe Weather on mobile